Terminal Aerodrome Forecast
Issued by NWS Amarillo, TX

Home | Current Version | Previous Version | Text Only | Print | Product List | Glossary On
Versions: 1 2 3 4 5 6 7 8 9 10 11 12 13 14 15 16 17 18 19 20
000
FTUS44 KAMA 181300 AAB
TAFDHT
TAF AMD
KDHT 181303Z 1813/1912 VRB04KT P6SM SCT150
      TEMPO 1813/1814 1/4SM FG VV004
     FM181500 18010KT P6SM SCT040 BKN100=

USA.gov is the U.S. government's official web portal to all federal, state and local government web resources and services.